Time;durP1;ratioP1;P1;durP2;ratioP2;P2;SDS_P1;SDS_P2;PMS_P1;PMS_P2;Temp;Humidity;BMP_temperature;BMP_pressure;BME280_temperature;BME280_humidity;BME280_pressure;Samples;Min_cycle;Max_cycle;Signal;HPM_P1;HPM_P2
2021/08/13 00:00:48;;;;;;;9.60;7.78;;;18.80;99.90;;;;;;5153434;27;20043;-61
2021/08/13 00:03:14;;;;;;;9.98;8.52;;;18.60;99.90;;;;;;5153058;27;20069;-61
2021/08/13 00:05:40;;;;;;;8.43;7.05;;;18.50;99.90;;;;;;5153286;27;20038;-61
2021/08/13 00:08:06;;;;;;;8.73;7.88;;;18.50;99.90;;;;;;5153269;27;20034;-61
2021/08/13 00:10:32;;;;;;;11.32;8.93;;;18.40;99.90;;;;;;5153152;27;20488;-60
2021/08/13 00:12:58;;;;;;;9.68;7.68;;;18.40;99.90;;;;;;5153426;27;20074;-61
2021/08/13 00:15:25;;;;;;;9.70;8.13;;;18.40;99.90;;;;;;5153112;27;20093;-60
2021/08/13 00:17:53;;;;;;;11.40;8.73;;;18.30;99.90;;;;;;5153219;27;20045;-60
2021/08/13 00:20:20;;;;;;;11.70;7.95;;;18.30;99.90;;;;;;5153441;27;20050;-61
2021/08/13 00:22:47;;;;;;;10.68;8.35;;;18.30;99.90;;;;;;5152997;27;20046;-61
2021/08/13 00:25:12;;;;;;;11.18;7.20;;;18.30;99.90;;;;;;5152869;27;20043;-60
2021/08/13 00:27:39;;;;;;;9.80;7.90;;;18.10;99.90;;;;;;5153101;27;20039;-61
2021/08/13 00:30:05;;;;;;;11.15;8.25;;;18.20;99.90;;;;;;5152955;27;20114;-60
2021/08/13 00:32:31;;;;;;;10.35;7.93;;;18.10;99.90;;;;;;5152896;27;20498;-60
2021/08/13 00:34:58;;;;;;;9.10;8.20;;;18.10;99.90;;;;;;5152940;27;20466;-61
2021/08/13 00:37:23;;;;;;;8.20;7.43;;;18.00;99.90;;;;;;5152945;27;20042;-61
2021/08/13 00:39:49;;;;;;;8.88;8.00;;;18.00;99.90;;;;;;5153010;27;20047;-61
2021/08/13 00:42:15;;;;;;;9.73;8.48;;;18.10;99.90;;;;;;5153304;27;20468;-60
2021/08/13 00:44:40;;;;;;;13.00;7.85;;;18.00;99.90;;;;;;5152900;27;20078;-60
2021/08/13 00:47:06;;;;;;;12.00;9.05;;;17.90;99.90;;;;;;5152826;27;20067;-60
2021/08/13 00:49:32;;;;;;;14.02;9.48;;;18.00;99.90;;;;;;5152688;27;20038;-60
2021/08/13 00:51:58;;;;;;;9.30;8.40;;;18.00;99.90;;;;;;5152691;27;20038;-60
2021/08/13 00:54:24;;;;;;;9.18;7.32;;;18.00;99.90;;;;;;5152718;27;20054;-60
2021/08/13 00:56:50;;;;;;;11.30;7.82;;;17.90;99.90;;;;;;5152741;27;20087;-61
2021/08/13 00:59:17;;;;;;;8.55;7.65;;;17.90;99.90;;;;;;5154667;27;20038;-60
2021/08/13 01:01:44;;;;;;;9.48;8.52;;;17.80;99.90;;;;;;5156490;27;20054;-61
2021/08/13 01:04:10;;;;;;;10.73;8.20;;;17.80;99.90;;;;;;5156387;27;20089;-60
2021/08/13 01:06:36;;;;;;;10.88;8.30;;;17.70;99.90;;;;;;5156780;27;20039;-60
2021/08/13 01:09:02;;;;;;;9.13;8.00;;;17.70;99.90;;;;;;5156178;27;20127;-60
2021/08/13 01:11:51;;;;;;;10.18;9.13;;;17.70;99.90;;;;;;5156436;27;20042;-60
2021/08/13 01:14:47;;;;;;;9.68;8.43;;;17.70;99.90;;;;;;5156018;27;20054;-60
2021/08/13 01:17:15;;;;;;;9.32;8.00;;;17.60;99.90;;;;;;5156091;27;20149;-60
2021/08/13 01:20:13;;;;;;;11.17;8.97;;;17.60;99.90;;;;;;5156347;27;20057;-60
2021/08/13 01:23:06;;;;;;;9.35;7.70;;;17.60;99.90;;;;;;5155929;27;20610;-60
2021/08/13 01:25:36;;;;;;;10.48;8.88;;;17.60;99.90;;;;;;5155855;27;20540;-60
2021/08/13 01:28:12;;;;;;;12.48;8.82;;;17.60;99.90;;;;;;5156146;27;20081;-60
2021/08/13 01:30:40;;;;;;;9.43;8.43;;;17.60;99.90;;;;;;5156003;27;20099;-60
2021/08/13 01:33:09;;;;;;;9.80;8.60;;;17.50;99.90;;;;;;5155893;27;20045;-60
2021/08/13 01:35:44;;;;;;;10.07;8.25;;;17.40;99.90;;;;;;5155801;27;20377;-60
2021/08/13 01:38:15;;;;;;;14.40;8.70;;;17.50;99.90;;;;;;5155678;27;20043;-60
2021/08/13 01:40:47;;;;;;;10.93;8.23;;;17.50;99.90;;;;;;5155855;27;20103;-60
2021/08/13 01:43:14;;;;;;;11.40;7.75;;;17.50;99.90;;;;;;5155517;27;20411;-60
2021/08/13 01:45:40;;;;;;;8.98;8.07;;;17.60;99.90;;;;;;5136699;27;20039;-60
2021/08/13 01:48:08;;;;;;;12.35;8.35;;;17.50;99.90;;;;;;5155463;27;20540;-60
2021/08/13 01:50:34;;;;;;;8.85;7.90;;;17.50;99.90;;;;;;5155466;27;20047;-59
2021/08/13 01:53:02;;;;;;;11.00;9.60;;;17.40;99.90;;;;;;5155615;27;20047;-60
2021/08/13 01:55:30;;;;;;;11.25;8.00;;;17.30;99.90;;;;;;5155536;27;20047;-60
2021/08/13 01:57:55;;;;;;;11.90;9.07;;;17.40;99.90;;;;;;5155344;27;20083;-60
2021/08/13 02:00:23;;;;;;;10.90;9.73;;;17.30;99.90;;;;;;5155389;27;20043;-61
2021/08/13 02:02:50;;;;;;;12.15;8.57;;;17.20;99.90;;;;;;5155288;27;20039;-60
2021/08/13 02:05:22;;;;;;;10.68;7.82;;;17.20;99.90;;;;;;5155004;27;20066;-60
2021/08/13 02:07:48;;;;;;;8.55;7.75;;;17.20;99.90;;;;;;5155063;27;20114;-59
2021/08/13 02:10:15;;;;;;;10.45;9.15;;;17.20;99.90;;;;;;5154613;27;20452;-60
2021/08/13 02:12:41;;;;;;;11.73;10.35;;;17.20;99.90;;;;;;5155059;27;20039;-60
2021/08/13 02:15:09;;;;;;;10.88;9.48;;;17.10;99.90;;;;;;5155051;27;20129;-60
2021/08/13 02:17:43;;;;;;;10.65;9.55;;;17.10;99.90;;;;;;5154870;27;20113;-60
2021/08/13 02:20:14;;;;;;;12.43;11.02;;;17.10;99.90;;;;;;5154706;27;20031;-60
2021/08/13 02:22:41;;;;;;;12.95;11.40;;;17.10;99.90;;;;;;5154856;27;20133;-60
2021/08/13 02:25:07;;;;;;;12.85;11.35;;;17.10;99.90;;;;;;5154789;27;20134;-60
2021/08/13 02:27:33;;;;;;;14.02;10.75;;;17.00;99.90;;;;;;5154796;27;20070;-60
2021/08/13 02:29:59;;;;;;;15.93;11.27;;;17.00;99.90;;;;;;5136201;27;20396;-60
2021/08/13 02:32:27;;;;;;;11.95;10.57;;;17.10;99.90;;;;;;5154404;27;20038;-60
2021/08/13 02:34:54;;;;;;;16.38;11.30;;;17.20;99.90;;;;;;5154666;27;20077;-60
2021/08/13 02:37:26;;;;;;;12.82;11.45;;;17.20;99.90;;;;;;5154684;27;20050;-60
2021/08/13 02:40:00;;;;;;;15.45;12.02;;;17.20;99.90;;;;;;5154839;27;20078;-60
2021/08/13 02:42:47;;;;;;;12.82;11.52;;;17.20;99.90;;;;;;5154367;27;20078;-60
2021/08/13 02:45:16;;;;;;;13.10;11.60;;;17.20;99.90;;;;;;5154496;27;20134;-60
2021/08/13 02:47:43;;;;;;;13.95;11.85;;;17.20;99.90;;;;;;5154491;27;20133;-60
2021/08/13 02:50:11;;;;;;;11.38;10.18;;;17.20;99.90;;;;;;5154231;27;20062;-60
2021/08/13 02:52:58;;;;;;;13.02;11.65;;;17.10;99.90;;;;;;5154259;27;20162;-60
2021/08/13 02:55:32;;;;;;;12.82;11.52;;;17.10;99.90;;;;;;5154155;27;20047;-60
2021/08/13 02:58:01;;;;;;;13.40;11.85;;;17.10;99.90;;;;;;5154072;27;20488;-60
2021/08/13 03:00:28;;;;;;;12.38;11.10;;;17.00;99.90;;;;;;5154244;27;20047;-60
2021/08/13 03:02:55;;;;;;;12.55;10.95;;;17.00;99.90;;;;;;5154040;27;20047;-60
2021/08/13 03:05:23;;;;;;;17.75;11.48;;;17.00;99.90;;;;;;5153882;27;20517;-60
2021/08/13 03:07:51;;;;;;;13.40;11.52;;;16.90;99.90;;;;;;5153951;27;20072;-60
2021/08/13 03:10:18;;;;;;;12.88;10.45;;;16.80;99.90;;;;;;5154148;27;20056;-60
2021/08/13 03:12:45;;;;;;;11.98;10.23;;;16.80;99.90;;;;;;5154012;27;20186;-60
2021/08/13 03:15:11;;;;;;;14.10;11.82;;;16.80;99.90;;;;;;5153850;27;20615;-60
2021/08/13 03:17:39;;;;;;;14.23;11.50;;;16.90;99.90;;;;;;5153742;27;20074;-61
2021/08/13 03:20:07;;;;;;;14.30;12.02;;;16.90;99.90;;;;;;5153678;27;20540;-60
2021/08/13 03:22:34;;;;;;;12.82;11.52;;;16.90;99.90;;;;;;5153102;27;20057;-60
2021/08/13 03:25:00;;;;;;;12.75;11.45;;;16.90;99.90;;;;;;5153776;27;20163;-59
2021/08/13 03:27:27;;;;;;;12.88;11.57;;;16.90;99.90;;;;;;5153766;27;20472;-60
2021/08/13 03:29:53;;;;;;;12.82;10.43;;;16.80;99.90;;;;;;5153634;27;20049;-60
2021/08/13 03:32:19;;;;;;;12.48;11.02;;;16.90;99.90;;;;;;5153524;27;20377;-60
2021/08/13 03:34:45;;;;;;;12.32;10.98;;;16.90;99.90;;;;;;5153510;27;20073;-60
2021/08/13 03:37:11;;;;;;;14.40;11.43;;;16.80;99.90;;;;;;5153743;27;20114;-60
2021/08/13 03:39:37;;;;;;;14.77;13.07;;;16.80;99.90;;;;;;5153629;27;20462;-60
2021/08/13 03:42:03;;;;;;;15.93;12.80;;;16.70;99.90;;;;;;5153636;27;20129;-61
2021/08/13 03:44:29;;;;;;;15.65;13.45;;;16.70;99.90;;;;;;5153244;27;20513;-60
2021/08/13 03:46:54;;;;;;;17.88;13.00;;;16.70;99.90;;;;;;5153541;27;20476;-60
2021/08/13 03:49:20;;;;;;;14.85;11.80;;;16.70;99.90;;;;;;5153365;27;20480;-60
2021/08/13 03:51:46;;;;;;;15.98;13.52;;;16.60;99.90;;;;;;5153275;27;20100;-60
2021/08/13 03:54:12;;;;;;;15.88;13.20;;;16.60;99.90;;;;;;5153475;27;20053;-60
2021/08/13 03:56:38;;;;;;;14.38;12.88;;;16.60;99.90;;;;;;5153463;27;20046;-60
2021/08/13 03:59:04;;;;;;;15.05;13.45;;;16.60;99.90;;;;;;5153373;27;20377;-60
2021/08/13 04:01:30;;;;;;;16.52;13.63;;;16.70;99.90;;;;;;5153238;27;20035;-60
2021/08/13 04:03:57;;;;;;;18.40;13.48;;;16.70;99.90;;;;;;5153069;27;20043;-60
2021/08/13 04:06:23;;;;;;;15.93;13.95;;;16.70;99.90;;;;;;5153212;27;20453;-60
2021/08/13 04:08:49;;;;;;;16.95;14.32;;;16.70;99.90;;;;;;5153291;27;20121;-60
2021/08/13 04:11:15;;;;;;;14.93;12.57;;;16.60;99.90;;;;;;5153153;27;20042;-59
2021/08/13 04:13:40;;;;;;;18.55;13.32;;;16.60;99.90;;;;;;5153501;27;20102;-60
2021/08/13 04:16:06;;;;;;;14.63;13.23;;;16.60;99.90;;;;;;5153336;27;20189;-59
2021/08/13 04:18:32;;;;;;;14.93;12.43;;;16.60;99.90;;;;;;5153097;27;20066;-60
2021/08/13 04:20:58;;;;;;;16.48;13.05;;;16.60;99.90;;;;;;5153209;27;20038;-60
2021/08/13 04:23:24;;;;;;;19.63;13.30;;;16.60;99.90;;;;;;5152716;27;20070;-60
2021/08/13 04:25:49;;;;;;;16.67;14.23;;;16.50;99.90;;;;;;5134234;27;20480;-59
2021/08/13 04:28:15;;;;;;;19.80;13.93;;;16.60;99.90;;;;;;5153053;27;20042;-60
2021/08/13 04:30:41;;;;;;;15.23;13.57;;;16.50;99.90;;;;;;5152988;27;20528;-59
2021/08/13 04:33:08;;;;;;;18.90;14.43;;;16.50;99.90;;;;;;5154569;27;20042;-60
2021/08/13 04:35:34;;;;;;;16.30;14.35;;;16.60;99.90;;;;;;5157112;27;20066;-60
2021/08/13 04:37:59;;;;;;;17.33;15.15;;;16.60;99.90;;;;;;5156895;27;20093;-59
2021/08/13 04:40:26;;;;;;;16.30;14.38;;;16.50;99.90;;;;;;5156978;27;20414;-60
2021/08/13 04:42:54;;;;;;;16.17;14.48;;;16.50;99.90;;;;;;5156837;27;20046;-60
2021/08/13 04:45:19;;;;;;;14.65;13.13;;;16.60;99.90;;;;;;5138137;27;20046;-60
2021/08/13 04:47:45;;;;;;;16.52;14.80;;;16.60;99.90;;;;;;5156563;27;20038;-60
2021/08/13 04:50:12;;;;;;;18.70;13.85;;;16.60;99.90;;;;;;5156759;27;20043;-60
2021/08/13 04:52:47;;;;;;;20.38;15.45;;;16.60;99.90;;;;;;5156689;27;20035;-60
2021/08/13 04:55:20;;;;;;;18.52;15.20;;;16.50;99.90;;;;;;5156621;27;20103;-60
2021/08/13 04:57:46;;;;;;;16.92;14.73;;;16.50;99.90;;;;;;5156821;27;20046;-59
2021/08/13 05:00:15;;;;;;;20.23;16.63;;;16.50;99.90;;;;;;5156556;27;20047;-60
2021/08/13 05:02:40;;;;;;;18.48;15.95;;;16.50;99.90;;;;;;5156656;27;20369;-60
2021/08/13 05:05:10;;;;;;;20.80;15.77;;;16.60;99.90;;;;;;5156416;27;20038;-60
2021/08/13 05:07:36;;;;;;;18.95;15.35;;;16.60;99.90;;;;;;5156349;27;20083;-60
2021/08/13 05:10:11;;;;;;;21.67;16.80;;;16.70;99.90;;;;;;5156356;27;20121;-60
2021/08/13 05:12:38;;;;;;;17.90;15.93;;;16.70;99.90;;;;;;5156196;27;20046;-59
2021/08/13 05:15:05;;;;;;;17.00;15.20;;;16.80;99.90;;;;;;5156094;27;20047;-59
2021/08/13 05:17:31;;;;;;;17.73;15.18;;;16.90;99.90;;;;;;5156152;27;20049;-59
2021/08/13 05:19:56;;;;;;;18.70;15.98;;;16.90;99.90;;;;;;5156135;27;20042;-60
2021/08/13 05:22:32;;;;;;;22.55;17.48;;;16.90;99.90;;;;;;5155993;27;20042;-59
2021/08/13 05:24:59;;;;;;;20.33;17.38;;;16.90;99.90;;;;;;5136682;27;20084;-60
2021/08/13 05:27:29;;;;;;;19.92;16.95;;;17.00;99.90;;;;;;5156391;27;20126;-60
2021/08/13 05:29:55;;;;;;;19.38;16.50;;;17.00;99.90;;;;;;5155835;27;20548;-60
2021/08/13 05:32:22;;;;;;;22.80;17.80;;;17.10;99.90;;;;;;5155978;27;20056;-60
2021/08/13 05:34:48;;;;;;;19.83;16.48;;;17.20;99.90;;;;;;5155916;27;20053;-60
2021/08/13 05:37:13;;;;;;;21.98;18.13;;;17.10;99.90;;;;;;5155743;27;20050;-60
2021/08/13 05:39:59;;;;;;;19.90;17.70;;;17.20;99.90;;;;;;5140439;27;20082;-60
2021/08/13 05:42:27;;;;;;;24.63;18.75;;;17.40;99.90;;;;;;5155760;27;20050;-60
2021/08/13 05:44:53;;;;;;;20.48;18.02;;;17.40;99.90;;;;;;5154787;27;20494;-60
2021/08/13 05:47:19;;;;;;;21.40;18.67;;;17.50;99.90;;;;;;5155465;27;20043;-60
2021/08/13 05:49:44;;;;;;;25.85;18.67;;;17.60;99.90;;;;;;5155541;27;20038;-60
2021/08/13 05:52:10;;;;;;;20.63;18.20;;;17.60;99.90;;;;;;5155248;27;20047;-60
2021/08/13 05:54:36;;;;;;;27.25;18.85;;;17.70;99.90;;;;;;5155563;27;20446;-59
2021/08/13 05:57:02;;;;;;;21.17;18.25;;;17.70;99.90;;;;;;5155398;27;20054;-60
2021/08/13 05:59:28;;;;;;;24.00;19.25;;;17.90;99.90;;;;;;5155493;27;20038;-60
2021/08/13 06:01:53;;;;;;;24.17;19.10;;;18.00;99.90;;;;;;5155304;27;20081;-60
2021/08/13 06:04:19;;;;;;;25.52;19.38;;;18.10;99.90;;;;;;5155173;27;20450;-60
2021/08/13 06:06:45;;;;;;;23.40;19.42;;;18.30;99.90;;;;;;5155156;27;20046;-60
2021/08/13 06:09:11;;;;;;;24.92;19.77;;;18.50;99.90;;;;;;5155479;27;20047;-60
2021/08/13 06:11:37;;;;;;;25.90;18.90;;;18.60;99.90;;;;;;5155583;27;20110;-61
2021/08/13 06:14:02;;;;;;;24.33;20.52;;;18.70;99.90;;;;;;5155207;27;20133;-61
2021/08/13 06:16:29;;;;;;;22.38;19.67;;;18.80;99.90;;;;;;5155016;27;20050;-60
2021/08/13 06:18:54;;;;;;;27.10;20.70;;;19.00;99.90;;;;;;5154861;27;20083;-60
2021/08/13 06:21:20;;;;;;;22.83;19.00;;;19.00;99.90;;;;;;5155090;27;20475;-60
2021/08/13 06:23:46;;;;;;;24.27;19.95;;;19.10;99.90;;;;;;5154468;27;20072;-60
2021/08/13 06:26:12;;;;;;;29.20;21.20;;;19.20;99.90;;;;;;5154958;27;20126;-61
2021/08/13 06:28:38;;;;;;;26.77;20.77;;;19.30;99.90;;;;;;5154783;27;20054;-60
2021/08/13 06:31:04;;;;;;;25.05;18.65;;;19.40;99.90;;;;;;5136233;27;20048;-59
2021/08/13 06:33:30;;;;;;;25.17;19.45;;;19.50;99.90;;;;;;5154671;27;20043;-60
2021/08/13 06:35:56;;;;;;;23.02;19.63;;;19.70;99.90;;;;;;5154549;27;20035;-60
2021/08/13 06:38:22;;;;;;;22.92;18.25;;;19.90;99.90;;;;;;5136064;27;20041;-60
2021/08/13 06:40:48;;;;;;;22.40;18.85;;;20.00;99.90;;;;;;5148350;27;20472;-60
2021/08/13 06:43:14;;;;;;;24.63;18.75;;;20.00;99.90;;;;;;5133942;27;20054;-60
2021/08/13 06:45:40;;;;;;;21.38;18.48;;;20.10;99.90;;;;;;5133771;27;20043;-59
2021/08/13 06:48:06;;;;;;;23.10;19.98;;;20.20;99.90;;;;;;5157426;27;20476;-59
2021/08/13 06:50:32;;;;;;;21.98;19.08;;;20.10;99.90;;;;;;5168929;27;20125;-61
2021/08/13 06:52:58;;;;;;;26.25;20.00;;;20.20;99.90;;;;;;5154515;27;20035;-60
2021/08/13 06:55:24;;;;;;;22.80;20.02;;;20.20;99.90;;;;;;5154217;27;20451;-60
2021/08/13 06:57:49;;;;;;;24.48;19.00;;;20.20;99.90;;;;;;5154413;27;20094;-61
2021/08/13 07:00:16;;;;;;;23.30;18.83;;;20.30;99.90;;;;;;5154872;27;20583;-60
2021/08/13 07:02:51;;;;;;;26.60;20.42;;;20.40;99.90;;;;;;5154170;27;20034;-60
2021/08/13 07:05:17;;;;;;;23.35;18.83;;;20.60;99.90;;;;;;5135433;27;20042;-61
2021/08/13 07:07:43;;;;;;;23.05;19.20;;;20.70;99.90;;;;;;5154116;27;20046;-60
2021/08/13 07:10:10;;;;;;;22.73;18.33;;;20.80;99.90;;;;;;5154014;27;20034;-60
2021/08/13 07:12:37;;;;;;;20.90;17.70;;;20.80;99.90;;;;;;5153971;27;20094;-59
2021/08/13 07:15:04;;;;;;;21.70;17.65;;;20.90;99.90;;;;;;5153884;27;20050;-60
2021/08/13 07:17:30;;;;;;;21.05;16.63;;;20.90;99.90;;;;;;5153751;27;20054;-61
2021/08/13 07:19:56;;;;;;;21.35;18.98;;;21.00;99.90;;;;;;5153750;27;20039;-59
2021/08/13 07:22:21;;;;;;;21.20;18.08;;;21.10;99.90;;;;;;5153973;27;20041;-60
2021/08/13 07:24:47;;;;;;;20.08;16.45;;;21.20;99.90;;;;;;5153461;27;20065;-60
2021/08/13 07:27:14;;;;;;;19.25;15.80;;;21.30;99.90;;;;;;5135299;27;20070;-60
2021/08/13 07:29:40;;;;;;;19.50;16.88;;;21.40;99.90;;;;;;5153899;27;20526;-60
2021/08/13 07:32:15;;;;;;;19.08;15.38;;;21.40;99.90;;;;;;5153552;27;20444;-61
2021/08/13 07:34:41;;;;;;;18.60;15.63;;;21.40;99.90;;;;;;5153613;27;20095;-61
2021/08/13 07:37:07;;;;;;;18.45;15.55;;;21.40;99.90;;;;;;5153520;27;20045;-61
2021/08/13 07:39:32;;;;;;;16.73;14.85;;;21.30;99.90;;;;;;5153392;27;20070;-60
2021/08/13 07:41:58;;;;;;;17.73;15.68;;;21.40;99.90;;;;;;5153372;27;20492;-60
2021/08/13 07:44:24;;;;;;;21.05;14.95;;;21.30;99.90;;;;;;5153154;27;20042;-59
2021/08/13 07:46:50;;;;;;;21.23;15.25;;;21.20;99.90;;;;;;5153300;27;20140;-60
2021/08/13 07:49:16;;;;;;;18.88;15.07;;;21.20;99.90;;;;;;5153610;27;20043;-60
2021/08/13 07:51:42;;;;;;;16.42;14.18;;;21.30;99.90;;;;;;5153658;27;20407;-61
2021/08/13 07:54:07;;;;;;;20.63;14.45;;;21.40;99.90;;;;;;5153264;27;20053;-60
2021/08/13 07:56:33;;;;;;;16.10;13.77;;;21.50;99.90;;;;;;5153199;27;20049;-60
2021/08/13 07:58:59;;;;;;;15.45;13.57;;;21.50;99.90;;;;;;5153134;27;20042;-61
2021/08/13 08:01:24;;;;;;;15.15;12.43;;;21.40;99.90;;;;;;5153012;27;20038;-61
2021/08/13 08:03:50;;;;;;;15.35;13.23;;;21.50;99.90;;;;;;5153096;27;20069;-60
2021/08/13 08:06:16;;;;;;;16.52;13.45;;;21.50;99.90;;;;;;5153201;27;20039;-61
2021/08/13 08:08:42;;;;;;;18.92;13.63;;;21.40;99.90;;;;;;5156044;27;20066;-60
2021/08/13 08:11:08;;;;;;;15.82;13.18;;;21.60;99.90;;;;;;5157401;27;20047;-61
2021/08/13 08:13:34;;;;;;;14.70;12.50;;;21.60;99.90;;;;;;5157212;27;20460;-61
2021/08/13 08:16:02;;;;;;;16.35;13.25;;;21.60;99.90;;;;;;5157224;27;20472;-61
2021/08/13 08:18:29;;;;;;;18.13;13.77;;;21.60;99.90;;;;;;5157461;27;20039;-61
2021/08/13 08:20:55;;;;;;;19.30;14.02;;;21.80;99.90;;;;;;5157267;27;20043;-61
2021/08/13 08:23:21;;;;;;;18.52;13.82;;;21.90;99.90;;;;;;5156983;27;20507;-61
2021/08/13 08:25:46;;;;;;;16.00;13.68;;;22.00;99.90;;;;;;5156954;27;20445;-61
2021/08/13 08:28:12;;;;;;;18.92;14.90;;;22.20;99.90;;;;;;5156966;27;20524;-61
2021/08/13 08:30:38;;;;;;;15.57;13.85;;;22.20;99.90;;;;;;5156797;27;20043;-61
2021/08/13 08:33:04;;;;;;;15.52;13.15;;;22.20;99.90;;;;;;5156837;27;20038;-60
2021/08/13 08:35:29;;;;;;;18.50;14.13;;;22.20;99.90;;;;;;5157019;27;20404;-60
2021/08/13 08:38:01;;;;;;;15.57;13.68;;;22.20;99.90;;;;;;5157135;27;20142;-60
2021/08/13 08:40:35;;;;;;;17.67;14.43;;;22.10;99.90;;;;;;5156791;27;20034;-61
2021/08/13 08:43:05;;;;;;;20.25;16.80;;;21.90;99.90;;;;;;5138212;27;20121;-60
2021/08/13 08:45:33;;;;;;;21.88;16.55;;;21.70;99.90;;;;;;5156613;27;20483;-60
2021/08/13 08:48:02;;;;;;;18.95;16.48;;;21.70;99.90;;;;;;5156798;27;20062;-60
2021/08/13 08:50:28;;;;;;;;;;;21.60;99.90;;;;;;5156849;27;20114;-60
2021/08/13 08:52:56;;;;;;;17.45;13.88;;;21.60;99.90;;;;;;5156566;27;19914;-60
2021/08/13 08:55:22;;;;;;;15.13;13.48;;;21.60;99.90;;;;;;5156443;27;20049;-60
2021/08/13 08:57:48;;;;;;;14.68;12.23;;;21.50;99.90;;;;;;5156388;27;20529;-60
2021/08/13 09:00:15;;;;;;;13.82;11.32;;;21.50;99.90;;;;;;5156493;27;20057;-60
2021/08/13 09:02:45;;;;;;;14.73;11.82;;;21.60;99.90;;;;;;5156502;27;20062;-60
2021/08/13 09:05:12;;;;;;;14.18;11.13;;;21.70;99.90;;;;;;5156076;27;20077;-60
2021/08/13 09:07:38;;;;;;;14.10;11.55;;;21.70;99.90;;;;;;5137729;27;20066;-60
2021/08/13 09:10:06;;;;;;;13.13;11.77;;;21.70;99.90;;;;;;5156128;27;20035;-60
2021/08/13 09:12:33;;;;;;;15.02;12.52;;;21.60;99.90;;;;;;5156151;27;20095;-60
2021/08/13 09:15:00;;;;;;;14.48;12.60;;;21.50;99.90;;;;;;5156117;27;20046;-61
2021/08/13 09:17:30;;;;;;;16.70;13.02;;;21.40;99.90;;;;;;5156104;27;20074;-60
2021/08/13 09:19:56;;;;;;;16.05;12.45;;;21.40;99.90;;;;;;5154893;27;20046;-61
2021/08/13 09:22:22;;;;;;;14.15;10.05;;;21.40;99.90;;;;;;5156145;27;20455;-58
2021/08/13 09:24:53;;;;;;;10.98;9.88;;;21.40;99.90;;;;;;5155629;27;20554;-60
2021/08/13 09:27:26;;;;;;;11.85;10.38;;;21.40;99.90;;;;;;5156048;27;20046;-61
2021/08/13 09:30:19;;;;;;;12.98;10.45;;;21.40;99.90;;;;;;5155976;27;20039;-60
2021/08/13 09:32:56;;;;;;;14.90;10.60;;;21.40;99.90;;;;;;5151083;27;20043;-60
2021/08/13 09:35:37;;;;;;;10.55;9.25;;;21.30;99.90;;;;;;5155636;27;20050;-60
2021/08/13 09:38:10;;;;;;;11.55;9.48;;;21.30;99.90;;;;;;5155691;27;20056;-60
2021/08/13 09:40:38;;;;;;;12.10;8.65;;;21.30;99.90;;;;;;5155546;27;20547;-62
2021/08/13 09:43:04;;;;;;;11.63;7.90;;;21.20;99.90;;;;;;5155593;27;20038;-61
2021/08/13 09:45:30;;;;;;;10.00;8.05;;;21.20;99.90;;;;;;5155359;27;20571;-61
2021/08/13 09:47:56;;;;;;;11.90;8.18;;;21.10;99.90;;;;;;5155774;27;20050;-61
2021/08/13 09:50:39;;;;;;;9.20;6.95;;;21.20;99.90;;;;;;5155623;27;20050;-60
2021/08/13 09:53:13;;;;;;;10.27;6.75;;;21.10;99.90;;;;;;5155364;27;20126;-60
2021/08/13 09:55:41;;;;;;;9.48;6.60;;;21.10;99.90;;;;;;5155278;27;20083;-59
2021/08/13 09:58:09;;;;;;;8.98;6.22;;;21.00;99.90;;;;;;5155263;27;20121;-61
2021/08/13 10:00:45;;;;;;;8.77;5.23;;;21.00;99.90;;;;;;5155304;27;20047;-59
2021/08/13 10:03:12;;;;;;;8.07;4.72;;;20.90;99.90;;;;;;5155294;27;20327;-61
2021/08/13 10:05:38;;;;;;;6.65;4.38;;;20.90;99.90;;;;;;5154923;27;20568;-60
2021/08/13 10:08:06;;;;;;;6.55;4.68;;;21.00;99.90;;;;;;5154957;27;20166;-60
2021/08/13 10:10:36;;;;;;;5.70;4.85;;;21.00;99.90;;;;;;5154936;27;20038;-60
2021/08/13 10:13:04;;;;;;;6.57;4.47;;;21.10;99.90;;;;;;5155222;27;20038;-59
2021/08/13 10:15:38;;;;;;;5.55;4.40;;;21.20;99.90;;;;;;5136387;27;20039;-61
2021/08/13 10:18:10;;;;;;;11.50;5.70;;;21.20;99.90;;;;;;5154974;27;20053;-59
2021/08/13 10:20:42;;;;;;;6.93;4.88;;;21.30;99.90;;;;;;5154770;27;20130;-60
2021/08/13 10:23:11;;;;;;;10.13;5.70;;;21.50;99.90;;;;;;5154464;27;20504;-59
2021/08/13 10:25:38;;;;;;;10.55;5.05;;;21.50;99.90;;;;;;5154629;27;20069;-61
2021/08/13 10:28:04;;;;;;;8.57;5.70;;;21.70;99.90;;;;;;5154724;27;20486;-61
2021/08/13 10:30:30;;;;;;;9.63;5.95;;;21.70;99.90;;;;;;5154346;27;20091;-61
2021/08/13 10:33:03;;;;;;;12.88;5.55;;;21.70;99.90;;;;;;5154481;27;20031;-60
2021/08/13 10:35:33;;;;;;;10.07;5.15;;;21.70;99.90;;;;;;5154543;27;20103;-60
2021/08/13 10:38:01;;;;;;;9.38;4.82;;;21.90;99.90;;;;;;5154512;27;20050;-60
2021/08/13 10:40:28;;;;;;;9.65;5.22;;;21.90;99.90;;;;;;5154626;27;20043;-60
2021/08/13 10:42:54;;;;;;;6.75;4.90;;;22.00;99.90;;;;;;5154573;27;20045;-61
2021/08/13 10:45:22;;;;;;;7.35;4.70;;;22.00;99.90;;;;;;5154380;27;20088;-60
2021/08/13 10:48:00;;;;;;;8.03;5.00;;;22.10;99.90;;;;;;5154326;27;20121;-60
2021/08/13 10:50:27;;;;;;;7.60;4.43;;;22.20;99.90;;;;;;5154203;27;20051;-60
2021/08/13 10:52:53;;;;;;;7.95;4.10;;;22.10;99.90;;;;;;5154281;27;20042;-59
2021/08/13 10:55:37;;;;;;;7.65;4.07;;;22.10;99.90;;;;;;5153453;27;20043;-61
2021/08/13 10:58:02;;;;;;;10.25;4.55;;;22.20;99.90;;;;;;5149810;27;20046;-60
2021/08/13 11:01:07;;;;;;;10.82;4.20;;;22.20;99.90;;;;;;5150465;27;20042;-61
2021/08/13 11:03:53;;;;;;;6.82;4.05;;;22.10;99.90;;;;;;5120153;27;20058;-61
2021/08/13 11:06:39;;;;;;;7.05;3.88;;;22.00;99.90;;;;;;5060408;28;20111;-61
2021/08/13 11:09:05;;;;;;;14.02;4.28;;;21.80;99.90;;;;;;5049638;28;20126;-60
2021/08/13 11:11:53;;;;;;;6.25;3.65;;;21.70;99.90;;;;;;5048568;28;20758;-62
2021/08/13 11:14:27;;;;;;;11.57;4.30;;;21.70;99.90;;;;;;5064465;28;20156;-61
2021/08/13 11:16:53;;;;;;;8.13;4.22;;;21.70;99.90;;;;;;5069868;28;20053;-61
2021/08/13 11:19:20;;;;;;;9.45;4.82;;;21.80;99.90;;;;;;5069654;28;20096;-61
2021/08/13 11:21:49;;;;;;;8.15;3.80;;;21.80;99.90;;;;;;5069570;28;20051;-60
2021/08/13 11:24:22;;;;;;;6.07;3.40;;;21.80;99.90;;;;;;5069366;28;20538;-61
2021/08/13 11:26:51;;;;;;;5.22;3.92;;;21.80;99.90;;;;;;5069582;28;20140;-61
2021/08/13 11:29:29;;;;;;;9.07;3.33;;;21.80;99.90;;;;;;5069451;28;20424;-61
2021/08/13 11:31:59;;;;;;;7.63;3.30;;;21.80;99.90;;;;;;5069334;28;20044;-61
2021/08/13 11:34:43;;;;;;;8.07;3.63;;;21.90;99.90;;;;;;5069494;28;20044;-59
2021/08/13 11:37:28;;;;;;;5.82;2.83;;;21.90;99.90;;;;;;5069392;28;20044;-60
2021/08/13 11:40:20;;;;;;;6.43;3.30;;;21.80;99.90;;;;;;5069460;28;20086;-60
2021/08/13 11:42:48;;;;;;;8.25;3.25;;;21.90;99.90;;;;;;4993315;28;20076;-60
2021/08/13 11:45:15;;;;;;;9.38;3.03;;;21.90;99.90;;;;;;5069200;28;20131;-60
2021/08/13 11:47:48;;;;;;;8.90;3.05;;;21.90;99.90;;;;;;5069289;28;20040;-60
2021/08/13 11:50:16;;;;;;;8.05;3.00;;;21.80;99.90;;;;;;5069268;28;20044;-60
2021/08/13 11:52:46;;;;;;;8.13;2.90;;;21.80;99.90;;;;;;5052504;28;20636;-59
2021/08/13 11:55:21;;;;;;;7.65;3.30;;;21.70;99.90;;;;;;5069202;28;20079;-60
2021/08/13 11:57:48;;;;;;;8.60;2.55;;;21.80;99.90;;;;;;5069420;28;20528;-62
2021/08/13 12:00:18;;;;;;;7.90;2.75;;;21.80;99.90;;;;;;5069350;28;20094;-60
2021/08/13 12:02:44;;;;;;;11.35;3.65;;;22.00;99.90;;;;;;5069216;28;20045;-64
2021/08/13 12:05:12;;;;;;;8.23;3.38;;;22.00;99.90;;;;;;5069091;28;20068;-60
2021/08/13 12:07:38;;;;;;;8.63;3.27;;;21.90;99.90;;;;;;5069115;28;20127;-60
2021/08/13 12:10:15;;;;;;;11.52;3.58;;;21.90;99.90;;;;;;5069005;28;20132;-59
2021/08/13 12:12:43;;;;;;;8.30;3.20;;;21.90;99.90;;;;;;5069082;28;20120;-59
2021/08/13 12:15:10;;;;;;;9.07;3.50;;;21.90;99.90;;;;;;5069094;28;20160;-60
2021/08/13 12:17:36;;;;;;;9.20;3.13;;;22.00;99.90;;;;;;5068981;28;20094;-60
2021/08/13 12:20:05;;;;;;;7.57;3.05;;;22.00;99.90;;;;;;5142575;27;20129;-62
2021/08/13 12:22:41;;;;;;;15.73;4.47;;;22.00;99.90;;;;;;5173771;27;20148;-60
2021/08/13 12:25:09;;;;;;;12.57;3.50;;;21.90;99.90;;;;;;5173843;27;20056;-61
2021/08/13 12:27:37;;;;;;;7.68;2.80;;;21.90;99.90;;;;;;5155354;27;20053;-61
2021/08/13 12:30:14;;;;;;;13.98;3.38;;;21.90;99.90;;;;;;5173771;27;20038;-61
2021/08/13 12:32:41;;;;;;;10.77;3.33;;;21.90;99.90;;;;;;5173913;27;20034;-60
2021/08/13 12:35:09;;;;;;;11.02;3.58;;;22.00;99.90;;;;;;5173668;27;20041;-61
2021/08/13 12:37:36;;;;;;;5.65;2.85;;;22.00;99.90;;;;;;5154706;27;20498;-60
2021/08/13 12:40:03;;;;;;;9.60;3.20;;;22.10;99.90;;;;;;5173640;27;20034;-60